sensor_id;sensor_type;location;lat;lon;timestamp;temperature;humidity
51637;DHT22;37713;53.254;6.460;2024-01-06T00:01:48;1.80;99.90
51637;DHT22;37713;53.254;6.460;2024-01-06T00:04:14;1.80;99.90
51637;DHT22;37713;53.254;6.460;2024-01-06T00:06:40;1.80;99.90
51637;DHT22;37713;53.254;6.460;2024-01-06T00:09:06;1.80;99.90
51637;DHT22;37713;53.254;6.460;2024-01-06T00:11:31;1.80;99.90
51637;DHT22;37713;53.254;6.460;2024-01-06T00:13:57;1.80;99.90
51637;DHT22;37713;53.254;6.460;2024-01-06T00:16:23;1.80;99.90
51637;DHT22;37713;53.254;6.460;2024-01-06T00:18:49;1.70;99.90
51637;DHT22;37713;53.254;6.460;2024-01-06T00:21:14;1.70;99.90
51637;DHT22;37713;53.254;6.460;2024-01-06T00:23:41;1.70;99.90
51637;DHT22;37713;53.254;6.460;2024-01-06T00:26:07;1.70;99.90
51637;DHT22;37713;53.254;6.460;2024-01-06T00:28:34;1.70;99.90
51637;DHT22;37713;53.254;6.460;2024-01-06T00:31:00;1.70;99.90
51637;DHT22;37713;53.254;6.460;2024-01-06T00:33:26;1.60;99.90
51637;DHT22;37713;53.254;6.460;2024-01-06T00:35:52;1.60;99.90
51637;DHT22;37713;53.254;6.460;2024-01-06T00:38:17;1.60;99.90
51637;DHT22;37713;53.254;6.460;2024-01-06T00:40:44;1.60;99.90
51637;DHT22;37713;53.254;6.460;2024-01-06T00:43:09;1.60;99.90
51637;DHT22;37713;53.254;6.460;2024-01-06T00:45:35;1.60;99.90
51637;DHT22;37713;53.254;6.460;2024-01-06T00:48:01;1.60;99.90
51637;DHT22;37713;53.254;6.460;2024-01-06T00:50:27;1.60;99.90
51637;DHT22;37713;53.254;6.460;2024-01-06T00:52:52;1.60;99.90
51637;DHT22;37713;53.254;6.460;2024-01-06T00:55:22;1.50;99.90
51637;DHT22;37713;53.254;6.460;2024-01-06T00:57:49;1.50;99.90
51637;DHT22;37713;53.254;6.460;2024-01-06T01:00:14;1.70;99.90
51637;DHT22;37713;53.254;6.460;2024-01-06T01:02:40;1.40;99.90
51637;DHT22;37713;53.254;6.460;2024-01-06T01:05:06;1.40;99.90
51637;DHT22;37713;53.254;6.460;2024-01-06T01:07:35;1.50;99.90
51637;DHT22;37713;53.254;6.460;2024-01-06T01:10:01;1.50;99.90
51637;DHT22;37713;53.254;6.460;2024-01-06T01:12:27;1.50;99.90
51637;DHT22;37713;53.254;6.460;2024-01-06T01:14:53;1.50;99.90
51637;DHT22;37713;53.254;6.460;2024-01-06T01:17:19;1.40;99.90
51637;DHT22;37713;53.254;6.460;2024-01-06T01:19:45;1.40;99.90
51637;DHT22;37713;53.254;6.460;2024-01-06T01:22:11;1.40;99.90
51637;DHT22;37713;53.254;6.460;2024-01-06T01:24:36;1.40;99.90
51637;DHT22;37713;53.254;6.460;2024-01-06T01:27:03;1.40;99.90
51637;DHT22;37713;53.254;6.460;2024-01-06T01:29:28;1.40;99.90
51637;DHT22;37713;53.254;6.460;2024-01-06T01:31:54;1.40;99.90
51637;DHT22;37713;53.254;6.460;2024-01-06T01:34:20;1.40;99.90
51637;DHT22;37713;53.254;6.460;2024-01-06T01:36:46;1.50;99.90
51637;DHT22;37713;53.254;6.460;2024-01-06T01:39:11;1.40;99.90
51637;DHT22;37713;53.254;6.460;2024-01-06T01:41:37;1.40;99.90
51637;DHT22;37713;53.254;6.460;2024-01-06T01:44:03;1.40;99.90
51637;DHT22;37713;53.254;6.460;2024-01-06T01:46:30;1.40;99.90
51637;DHT22;37713;53.254;6.460;2024-01-06T01:48:58;1.40;99.90
51637;DHT22;37713;53.254;6.460;2024-01-06T01:51:30;1.30;99.90
51637;DHT22;37713;53.254;6.460;2024-01-06T01:53:57;1.30;99.90
51637;DHT22;37713;53.254;6.460;2024-01-06T01:56:25;1.40;99.90
51637;DHT22;37713;53.254;6.460;2024-01-06T01:58:51;1.30;99.90
51637;DHT22;37713;53.254;6.460;2024-01-06T02:01:17;1.30;99.90
51637;DHT22;37713;53.254;6.460;2024-01-06T02:03:43;1.30;99.90
51637;DHT22;37713;53.254;6.460;2024-01-06T02:06:12;1.30;99.90
51637;DHT22;37713;53.254;6.460;2024-01-06T02:08:39;1.30;99.90
51637;DHT22;37713;53.254;6.460;2024-01-06T02:11:05;1.30;99.90
51637;DHT22;37713;53.254;6.460;2024-01-06T02:13:34;1.30;99.90
51637;DHT22;37713;53.254;6.460;2024-01-06T02:16:04;1.20;99.90
51637;DHT22;37713;53.254;6.460;2024-01-06T02:18:31;1.30;99.90
51637;DHT22;37713;53.254;6.460;2024-01-06T02:20:59;1.30;99.90
51637;DHT22;37713;53.254;6.460;2024-01-06T02:23:29;1.30;99.90
51637;DHT22;37713;53.254;6.460;2024-01-06T02:25:55;1.30;99.90
51637;DHT22;37713;53.254;6.460;2024-01-06T02:28:21;1.30;99.90
51637;DHT22;37713;53.254;6.460;2024-01-06T02:30:47;1.30;99.90
51637;DHT22;37713;53.254;6.460;2024-01-06T02:33:13;1.30;99.90
51637;DHT22;37713;53.254;6.460;2024-01-06T02:35:39;1.30;99.90
51637;DHT22;37713;53.254;6.460;2024-01-06T02:38:06;1.30;99.90
51637;DHT22;37713;53.254;6.460;2024-01-06T02:40:32;1.30;99.90
51637;DHT22;37713;53.254;6.460;2024-01-06T02:42:58;1.30;99.90
51637;DHT22;37713;53.254;6.460;2024-01-06T02:45:24;1.20;99.90
51637;DHT22;37713;53.254;6.460;2024-01-06T02:47:50;1.20;99.90
51637;DHT22;37713;53.254;6.460;2024-01-06T02:50:16;1.20;99.90
51637;DHT22;37713;53.254;6.460;2024-01-06T02:52:43;1.30;99.90
51637;DHT22;37713;53.254;6.460;2024-01-06T02:55:09;1.30;99.90
51637;DHT22;37713;53.254;6.460;2024-01-06T02:57:35;1.30;99.90
51637;DHT22;37713;53.254;6.460;2024-01-06T03:00:02;1.20;99.90
51637;DHT22;37713;53.254;6.460;2024-01-06T03:02:28;1.20;99.90
51637;DHT22;37713;53.254;6.460;2024-01-06T03:04:54;1.20;99.90
51637;DHT22;37713;53.254;6.460;2024-01-06T03:07:20;1.20;99.90
51637;DHT22;37713;53.254;6.460;2024-01-06T03:09:46;1.20;99.90
51637;DHT22;37713;53.254;6.460;2024-01-06T03:12:12;1.20;99.90
51637;DHT22;37713;53.254;6.460;2024-01-06T03:14:38;1.20;99.90
51637;DHT22;37713;53.254;6.460;2024-01-06T03:17:04;1.20;99.90
51637;DHT22;37713;53.254;6.460;2024-01-06T03:19:33;1.20;99.90
51637;DHT22;37713;53.254;6.460;2024-01-06T03:21:59;1.30;99.90
51637;DHT22;37713;53.254;6.460;2024-01-06T03:24:26;1.20;99.90
51637;DHT22;37713;53.254;6.460;2024-01-06T03:26:52;1.20;99.90
51637;DHT22;37713;53.254;6.460;2024-01-06T03:29:18;1.20;99.90
51637;DHT22;37713;53.254;6.460;2024-01-06T03:31:44;1.20;99.90
51637;DHT22;37713;53.254;6.460;2024-01-06T03:34:10;1.20;99.90
51637;DHT22;37713;53.254;6.460;2024-01-06T03:36:37;1.20;99.90
51637;DHT22;37713;53.254;6.460;2024-01-06T03:39:03;1.20;99.90
51637;DHT22;37713;53.254;6.460;2024-01-06T03:41:30;1.20;99.90
51637;DHT22;37713;53.254;6.460;2024-01-06T03:43:56;1.20;99.90
51637;DHT22;37713;53.254;6.460;2024-01-06T03:46:22;1.20;99.90
51637;DHT22;37713;53.254;6.460;2024-01-06T03:48:48;1.20;99.90
51637;DHT22;37713;53.254;6.460;2024-01-06T03:51:14;1.20;99.90
51637;DHT22;37713;53.254;6.460;2024-01-06T03:53:39;1.10;99.90
51637;DHT22;37713;53.254;6.460;2024-01-06T03:56:08;1.10;99.90
51637;DHT22;37713;53.254;6.460;2024-01-06T03:58:34;1.20;99.90
51637;DHT22;37713;53.254;6.460;2024-01-06T04:01:00;1.20;99.90
51637;DHT22;37713;53.254;6.460;2024-01-06T04:03:26;1.20;99.90
51637;DHT22;37713;53.254;6.460;2024-01-06T04:05:52;1.20;99.90
51637;DHT22;37713;53.254;6.460;2024-01-06T04:08:18;1.20;99.90
51637;DHT22;37713;53.254;6.460;2024-01-06T04:10:44;1.20;99.90
51637;DHT22;37713;53.254;6.460;2024-01-06T04:13:11;1.20;99.90
51637;DHT22;37713;53.254;6.460;2024-01-06T04:15:36;1.20;99.90
51637;DHT22;37713;53.254;6.460;2024-01-06T04:18:03;1.10;99.90
51637;DHT22;37713;53.254;6.460;2024-01-06T04:20:30;1.20;99.90
51637;DHT22;37713;53.254;6.460;2024-01-06T04:22:56;1.20;99.90
51637;DHT22;37713;53.254;6.460;2024-01-06T04:25:21;1.20;99.90
51637;DHT22;37713;53.254;6.460;2024-01-06T04:27:47;1.20;99.90
51637;DHT22;37713;53.254;6.460;2024-01-06T04:30:15;1.20;99.90
51637;DHT22;37713;53.254;6.460;2024-01-06T04:32:41;1.10;99.90
51637;DHT22;37713;53.254;6.460;2024-01-06T04:35:09;1.10;99.90
51637;DHT22;37713;53.254;6.460;2024-01-06T04:37:35;1.20;99.90
51637;DHT22;37713;53.254;6.460;2024-01-06T04:40:01;1.20;99.90
51637;DHT22;37713;53.254;6.460;2024-01-06T04:42:27;1.20;99.90
51637;DHT22;37713;53.254;6.460;2024-01-06T04:44:53;1.20;99.90
51637;DHT22;37713;53.254;6.460;2024-01-06T04:47:19;1.20;99.90
51637;DHT22;37713;53.254;6.460;2024-01-06T04:49:45;1.20;99.90
51637;DHT22;37713;53.254;6.460;2024-01-06T04:52:11;1.20;99.90
51637;DHT22;37713;53.254;6.460;2024-01-06T04:54:36;1.20;99.90
51637;DHT22;37713;53.254;6.460;2024-01-06T04:57:02;1.20;99.90
51637;DHT22;37713;53.254;6.460;2024-01-06T04:59:30;1.20;99.90
51637;DHT22;37713;53.254;6.460;2024-01-06T05:01:57;1.20;99.90
51637;DHT22;37713;53.254;6.460;2024-01-06T05:04:23;1.20;99.90
51637;DHT22;37713;53.254;6.460;2024-01-06T05:06:49;1.40;99.90
51637;DHT22;37713;53.254;6.460;2024-01-06T05:09:15;1.20;99.90
51637;DHT22;37713;53.254;6.460;2024-01-06T05:11:43;1.20;99.90
51637;DHT22;37713;53.254;6.460;2024-01-06T05:14:09;1.20;99.90
51637;DHT22;37713;53.254;6.460;2024-01-06T05:16:35;1.20;99.90
51637;DHT22;37713;53.254;6.460;2024-01-06T05:19:01;1.20;99.90
51637;DHT22;37713;53.254;6.460;2024-01-06T05:21:26;1.20;99.90
51637;DHT22;37713;53.254;6.460;2024-01-06T05:23:52;1.20;99.90
51637;DHT22;37713;53.254;6.460;2024-01-06T05:26:18;1.20;99.90
51637;DHT22;37713;53.254;6.460;2024-01-06T05:28:44;1.20;99.90
51637;DHT22;37713;53.254;6.460;2024-01-06T05:31:09;1.20;99.90
51637;DHT22;37713;53.254;6.460;2024-01-06T05:33:35;1.40;99.90
51637;DHT22;37713;53.254;6.460;2024-01-06T05:36:02;1.20;99.90
51637;DHT22;37713;53.254;6.460;2024-01-06T05:38:27;1.20;99.90
51637;DHT22;37713;53.254;6.460;2024-01-06T05:40:53;1.20;99.90
51637;DHT22;37713;53.254;6.460;2024-01-06T05:43:19;1.20;99.90
51637;DHT22;37713;53.254;6.460;2024-01-06T05:45:44;1.20;99.90
51637;DHT22;37713;53.254;6.460;2024-01-06T05:48:11;1.20;99.90
51637;DHT22;37713;53.254;6.460;2024-01-06T05:50:40;1.20;99.90
51637;DHT22;37713;53.254;6.460;2024-01-06T05:53:06;1.20;99.90
51637;DHT22;37713;53.254;6.460;2024-01-06T05:55:33;1.20;99.90
51637;DHT22;37713;53.254;6.460;2024-01-06T05:57:59;1.40;99.90
51637;DHT22;37713;53.254;6.460;2024-01-06T06:00:24;1.20;99.90
51637;DHT22;37713;53.254;6.460;2024-01-06T06:02:50;1.20;99.90
51637;DHT22;37713;53.254;6.460;2024-01-06T06:05:16;1.20;99.90
51637;DHT22;37713;53.254;6.460;2024-01-06T06:07:42;1.20;99.90
51637;DHT22;37713;53.254;6.460;2024-01-06T06:10:09;1.20;99.90
51637;DHT22;37713;53.254;6.460;2024-01-06T06:12:36;1.20;99.90
51637;DHT22;37713;53.254;6.460;2024-01-06T06:15:02;1.30;99.90
51637;DHT22;37713;53.254;6.460;2024-01-06T06:17:33;1.30;99.90
51637;DHT22;37713;53.254;6.460;2024-01-06T06:19:59;1.30;99.90
51637;DHT22;37713;53.254;6.460;2024-01-06T06:22:26;1.30;99.90
51637;DHT22;37713;53.254;6.460;2024-01-06T06:24:56;1.30;99.90
51637;DHT22;37713;53.254;6.460;2024-01-06T06:27:23;1.30;99.90
51637;DHT22;37713;53.254;6.460;2024-01-06T06:29:49;1.30;99.90
51637;DHT22;37713;53.254;6.460;2024-01-06T06:32:15;1.40;99.90
51637;DHT22;37713;53.254;6.460;2024-01-06T06:34:42;1.40;99.90
51637;DHT22;37713;53.254;6.460;2024-01-06T06:37:08;1.40;99.90
51637;DHT22;37713;53.254;6.460;2024-01-06T06:39:34;1.40;99.90
51637;DHT22;37713;53.254;6.460;2024-01-06T06:42:01;1.60;99.90
51637;DHT22;37713;53.254;6.460;2024-01-06T06:44:28;1.40;99.90
51637;DHT22;37713;53.254;6.460;2024-01-06T06:46:55;1.40;99.90
51637;DHT22;37713;53.254;6.460;2024-01-06T06:49:21;1.40;99.90
51637;DHT22;37713;53.254;6.460;2024-01-06T06:51:47;1.40;99.90
51637;DHT22;37713;53.254;6.460;2024-01-06T06:54:17;1.40;99.90
51637;DHT22;37713;53.254;6.460;2024-01-06T06:56:43;1.40;99.90
51637;DHT22;37713;53.254;6.460;2024-01-06T06:59:09;1.40;99.90
51637;DHT22;37713;53.254;6.460;2024-01-06T07:01:35;1.40;99.90
51637;DHT22;37713;53.254;6.460;2024-01-06T07:04:01;1.40;99.90
51637;DHT22;37713;53.254;6.460;2024-01-06T07:06:28;1.40;99.90
51637;DHT22;37713;53.254;6.460;2024-01-06T07:08:54;1.40;99.90
51637;DHT22;37713;53.254;6.460;2024-01-06T07:11:20;1.40;99.90
51637;DHT22;37713;53.254;6.460;2024-01-06T07:13:46;1.40;99.90
51637;DHT22;37713;53.254;6.460;2024-01-06T07:16:12;1.40;99.90
51637;DHT22;37713;53.254;6.460;2024-01-06T07:18:38;1.40;99.90
51637;DHT22;37713;53.254;6.460;2024-01-06T07:21:07;1.40;99.90
51637;DHT22;37713;53.254;6.460;2024-01-06T07:23:34;1.40;99.90
51637;DHT22;37713;53.254;6.460;2024-01-06T07:26:00;1.40;99.90
51637;DHT22;37713;53.254;6.460;2024-01-06T07:28:26;1.40;99.90
51637;DHT22;37713;53.254;6.460;2024-01-06T07:30:52;1.40;99.90
51637;DHT22;37713;53.254;6.460;2024-01-06T07:33:18;1.40;99.90
51637;DHT22;37713;53.254;6.460;2024-01-06T07:35:44;1.40;99.90
51637;DHT22;37713;53.254;6.460;2024-01-06T07:38:11;1.40;99.90
51637;DHT22;37713;53.254;6.460;2024-01-06T07:40:37;1.50;99.90
51637;DHT22;37713;53.254;6.460;2024-01-06T07:43:03;1.50;99.90
51637;DHT22;37713;53.254;6.460;2024-01-06T07:45:33;1.50;99.90
51637;DHT22;37713;53.254;6.460;2024-01-06T07:47:59;1.50;99.90
51637;DHT22;37713;53.254;6.460;2024-01-06T07:50:26;1.50;99.90
51637;DHT22;37713;53.254;6.460;2024-01-06T07:52:52;1.50;99.90
51637;DHT22;37713;53.254;6.460;2024-01-06T07:55:18;1.50;99.90
51637;DHT22;37713;53.254;6.460;2024-01-06T07:57:44;1.50;99.90
51637;DHT22;37713;53.254;6.460;2024-01-06T08:00:10;1.50;99.90
51637;DHT22;37713;53.254;6.460;2024-01-06T08:02:40;1.50;99.90
51637;DHT22;37713;53.254;6.460;2024-01-06T08:05:07;1.60;99.90
51637;DHT22;37713;53.254;6.460;2024-01-06T08:07:33;1.60;99.90
51637;DHT22;37713;53.254;6.460;2024-01-06T08:09:59;1.50;99.90
51637;DHT22;37713;53.254;6.460;2024-01-06T08:12:25;1.50;99.90
51637;DHT22;37713;53.254;6.460;2024-01-06T08:14:50;1.50;99.90
51637;DHT22;37713;53.254;6.460;2024-01-06T08:17:17;1.50;99.90
51637;DHT22;37713;53.254;6.460;2024-01-06T08:19:42;1.60;99.90
51637;DHT22;37713;53.254;6.460;2024-01-06T08:22:08;1.60;99.90
51637;DHT22;37713;53.254;6.460;2024-01-06T08:24:34;1.60;99.90
51637;DHT22;37713;53.254;6.460;2024-01-06T08:27:00;1.60;99.90
51637;DHT22;37713;53.254;6.460;2024-01-06T08:29:26;1.60;99.90
51637;DHT22;37713;53.254;6.460;2024-01-06T08:31:52;1.60;99.90
51637;DHT22;37713;53.254;6.460;2024-01-06T08:34:20;1.60;99.90
51637;DHT22;37713;53.254;6.460;2024-01-06T08:36:46;1.60;99.90
51637;DHT22;37713;53.254;6.460;2024-01-06T08:39:12;1.60;99.90
51637;DHT22;37713;53.254;6.460;2024-01-06T08:41:38;1.60;99.90
51637;DHT22;37713;53.254;6.460;2024-01-06T08:44:04;1.60;99.90
51637;DHT22;37713;53.254;6.460;2024-01-06T08:46:30;1.60;99.90
51637;DHT22;37713;53.254;6.460;2024-01-06T08:48:56;1.60;99.90
51637;DHT22;37713;53.254;6.460;2024-01-06T08:51:22;1.60;99.90
51637;DHT22;37713;53.254;6.460;2024-01-06T08:53:49;1.60;99.90
51637;DHT22;37713;53.254;6.460;2024-01-06T08:56:15;1.60;99.90
51637;DHT22;37713;53.254;6.460;2024-01-06T08:58:44;1.70;99.90
51637;DHT22;37713;53.254;6.460;2024-01-06T09:01:10;1.60;99.90
51637;DHT22;37713;53.254;6.460;2024-01-06T09:03:36;1.70;99.90
51637;DHT22;37713;53.254;6.460;2024-01-06T09:06:02;1.70;99.90
51637;DHT22;37713;53.254;6.460;2024-01-06T09:08:28;1.70;99.90
51637;DHT22;37713;53.254;6.460;2024-01-06T09:10:55;1.70;99.90
51637;DHT22;37713;53.254;6.460;2024-01-06T09:13:23;1.70;99.90
51637;DHT22;37713;53.254;6.460;2024-01-06T09:15:52;1.70;99.90
51637;DHT22;37713;53.254;6.460;2024-01-06T09:18:18;1.70;99.90
51637;DHT22;37713;53.254;6.460;2024-01-06T09:20:44;1.70;99.90
51637;DHT22;37713;53.254;6.460;2024-01-06T09:23:13;1.70;99.90
51637;DHT22;37713;53.254;6.460;2024-01-06T09:25:39;1.70;99.90
51637;DHT22;37713;53.254;6.460;2024-01-06T09:28:05;1.80;99.90
51637;DHT22;37713;53.254;6.460;2024-01-06T09:30:31;1.80;99.90
51637;DHT22;37713;53.254;6.460;2024-01-06T09:32:57;1.80;99.90
51637;DHT22;37713;53.254;6.460;2024-01-06T09:35:23;1.80;99.90
51637;DHT22;37713;53.254;6.460;2024-01-06T09:37:49;1.80;99.90
51637;DHT22;37713;53.254;6.460;2024-01-06T09:40:22;1.80;99.90
51637;DHT22;37713;53.254;6.460;2024-01-06T09:42:49;1.80;99.90
51637;DHT22;37713;53.254;6.460;2024-01-06T09:45:15;1.80;99.90
51637;DHT22;37713;53.254;6.460;2024-01-06T09:47:41;1.80;99.90
51637;DHT22;37713;53.254;6.460;2024-01-06T09:50:09;1.80;99.90
51637;DHT22;37713;53.254;6.460;2024-01-06T09:52:46;1.80;99.90
51637;DHT22;37713;53.254;6.460;2024-01-06T09:55:25;1.80;99.90
51637;DHT22;37713;53.254;6.460;2024-01-06T09:57:55;1.80;99.90
51637;DHT22;37713;53.254;6.460;2024-01-06T10:00:21;1.80;99.90
51637;DHT22;37713;53.254;6.460;2024-01-06T10:02:50;1.90;99.90
51637;DHT22;37713;53.254;6.460;2024-01-06T10:05:21;1.90;99.90
51637;DHT22;37713;53.254;6.460;2024-01-06T10:07:47;1.90;99.90
51637;DHT22;37713;53.254;6.460;2024-01-06T10:10:14;2.00;99.90
51637;DHT22;37713;53.254;6.460;2024-01-06T10:12:41;2.00;99.90
51637;DHT22;37713;53.254;6.460;2024-01-06T10:15:08;1.90;99.90
51637;DHT22;37713;53.254;6.460;2024-01-06T10:17:38;2.00;99.90
51637;DHT22;37713;53.254;6.460;2024-01-06T10:20:08;2.00;99.90
51637;DHT22;37713;53.254;6.460;2024-01-06T10:22:36;2.00;99.90
51637;DHT22;37713;53.254;6.460;2024-01-06T10:25:04;2.00;99.90
51637;DHT22;37713;53.254;6.460;2024-01-06T10:27:30;2.00;99.90
51637;DHT22;37713;53.254;6.460;2024-01-06T10:29:55;2.10;99.90
51637;DHT22;37713;53.254;6.460;2024-01-06T10:32:21;2.10;99.90
51637;DHT22;37713;53.254;6.460;2024-01-06T10:34:51;2.10;99.90
51637;DHT22;37713;53.254;6.460;2024-01-06T10:37:17;2.20;99.90
51637;DHT22;37713;53.254;6.460;2024-01-06T10:39:43;2.30;99.90
51637;DHT22;37713;53.254;6.460;2024-01-06T10:42:10;2.30;99.90
51637;DHT22;37713;53.254;6.460;2024-01-06T10:44:39;2.40;99.90
51637;DHT22;37713;53.254;6.460;2024-01-06T10:47:06;2.50;99.90
51637;DHT22;37713;53.254;6.460;2024-01-06T10:49:33;2.50;99.90
51637;DHT22;37713;53.254;6.460;2024-01-06T10:52:00;2.60;99.90
51637;DHT22;37713;53.254;6.460;2024-01-06T10:54:27;2.60;99.90
51637;DHT22;37713;53.254;6.460;2024-01-06T10:56:53;2.70;99.90
51637;DHT22;37713;53.254;6.460;2024-01-06T10:59:23;2.70;99.90
51637;DHT22;37713;53.254;6.460;2024-01-06T11:01:52;2.70;99.90
51637;DHT22;37713;53.254;6.460;2024-01-06T11:04:20;2.70;99.90
51637;DHT22;37713;53.254;6.460;2024-01-06T11:06:48;2.70;99.90
51637;DHT22;37713;53.254;6.460;2024-01-06T11:09:24;2.60;99.90
51637;DHT22;37713;53.254;6.460;2024-01-06T11:11:53;2.60;99.90
51637;DHT22;37713;53.254;6.460;2024-01-06T11:16:45;2.60;99.90
51637;DHT22;37713;53.254;6.460;2024-01-06T11:24:52;2.50;99.90
51637;DHT22;37713;53.254;6.460;2024-01-06T11:27:28;2.50;99.90
51637;DHT22;37713;53.254;6.460;2024-01-06T11:29:59;2.50;99.90
51637;DHT22;37713;53.254;6.460;2024-01-06T11:32:32;2.50;99.90
51637;DHT22;37713;53.254;6.460;2024-01-06T11:35:16;2.50;99.90
51637;DHT22;37713;53.254;6.460;2024-01-06T11:40:23;2.40;99.90
51637;DHT22;37713;53.254;6.460;2024-01-06T11:43:09;2.40;99.90
51637;DHT22;37713;53.254;6.460;2024-01-06T11:45:37;2.30;99.90
51637;DHT22;37713;53.254;6.460;2024-01-06T11:48:05;2.50;99.90
51637;DHT22;37713;53.254;6.460;2024-01-06T11:50:33;2.30;99.90
51637;DHT22;37713;53.254;6.460;2024-01-06T11:52:59;2.20;99.90
51637;DHT22;37713;53.254;6.460;2024-01-06T11:55:26;2.20;99.90
51637;DHT22;37713;53.254;6.460;2024-01-06T11:57:57;2.20;99.90
51637;DHT22;37713;53.254;6.460;2024-01-06T12:00:28;2.20;99.90
51637;DHT22;37713;53.254;6.460;2024-01-06T12:02:58;2.20;99.90
51637;DHT22;37713;53.254;6.460;2024-01-06T12:05:24;2.20;99.90
51637;DHT22;37713;53.254;6.460;2024-01-06T12:08:02;2.20;99.90
51637;DHT22;37713;53.254;6.460;2024-01-06T12:10:33;2.20;99.90
51637;DHT22;37713;53.254;6.460;2024-01-06T12:13:04;2.20;99.90
51637;DHT22;37713;53.254;6.460;2024-01-06T12:15:32;2.20;99.90
51637;DHT22;37713;53.254;6.460;2024-01-06T12:17:58;2.20;99.90
51637;DHT22;37713;53.254;6.460;2024-01-06T12:20:25;2.20;99.90
51637;DHT22;37713;53.254;6.460;2024-01-06T12:22:52;2.10;99.90
51637;DHT22;37713;53.254;6.460;2024-01-06T12:25:20;2.10;99.90
51637;DHT22;37713;53.254;6.460;2024-01-06T12:27:46;2.10;99.90
51637;DHT22;37713;53.254;6.460;2024-01-06T12:30:13;2.10;99.90
51637;DHT22;37713;53.254;6.460;2024-01-06T12:32:43;2.10;99.90
51637;DHT22;37713;53.254;6.460;2024-01-06T12:35:11;2.10;99.90
51637;DHT22;37713;53.254;6.460;2024-01-06T12:37:38;2.20;99.90
51637;DHT22;37713;53.254;6.460;2024-01-06T12:40:04;2.10;99.90
51637;DHT22;37713;53.254;6.460;2024-01-06T12:42:31;2.10;99.90
51637;DHT22;37713;53.254;6.460;2024-01-06T12:44:57;2.10;99.90
51637;DHT22;37713;53.254;6.460;2024-01-06T12:47:23;2.10;99.90
51637;DHT22;37713;53.254;6.460;2024-01-06T12:49:49;2.10;99.90
51637;DHT22;37713;53.254;6.460;2024-01-06T12:52:15;2.10;99.90
51637;DHT22;37713;53.254;6.460;2024-01-06T12:54:41;2.10;99.90
51637;DHT22;37713;53.254;6.460;2024-01-06T12:57:07;2.10;99.90
51637;DHT22;37713;53.254;6.460;2024-01-06T12:59:33;2.20;99.90
51637;DHT22;37713;53.254;6.460;2024-01-06T13:01:59;2.10;99.90
51637;DHT22;37713;53.254;6.460;2024-01-06T13:04:25;2.10;99.90
51637;DHT22;37713;53.254;6.460;2024-01-06T13:06:51;2.10;99.90
51637;DHT22;37713;53.254;6.460;2024-01-06T13:09:17;2.10;99.90
51637;DHT22;37713;53.254;6.460;2024-01-06T13:11:43;2.10;99.90
51637;DHT22;37713;53.254;6.460;2024-01-06T13:14:12;2.10;99.90
51637;DHT22;37713;53.254;6.460;2024-01-06T13:16:38;2.10;99.90
51637;DHT22;37713;53.254;6.460;2024-01-06T13:19:04;2.00;99.90
51637;DHT22;37713;53.254;6.460;2024-01-06T13:21:30;2.00;99.90
51637;DHT22;37713;53.254;6.460;2024-01-06T13:23:56;1.90;99.90
51637;DHT22;37713;53.254;6.460;2024-01-06T13:26:26;1.90;99.90
51637;DHT22;37713;53.254;6.460;2024-01-06T13:28:54;1.90;99.90
51637;DHT22;37713;53.254;6.460;2024-01-06T13:31:19;1.90;99.90
51637;DHT22;37713;53.254;6.460;2024-01-06T13:33:46;1.80;99.90
51637;DHT22;37713;53.254;6.460;2024-01-06T13:36:12;1.80;99.90
51637;DHT22;37713;53.254;6.460;2024-01-06T13:38:38;1.80;99.90
51637;DHT22;37713;53.254;6.460;2024-01-06T13:41:04;1.80;99.90
51637;DHT22;37713;53.254;6.460;2024-01-06T13:43:30;1.70;99.90
51637;DHT22;37713;53.254;6.460;2024-01-06T13:45:57;1.70;99.90
51637;DHT22;37713;53.254;6.460;2024-01-06T13:48:23;1.70;99.90
51637;DHT22;37713;53.254;6.460;2024-01-06T13:50:49;1.70;99.90
51637;DHT22;37713;53.254;6.460;2024-01-06T13:53:15;1.70;99.90
51637;DHT22;37713;53.254;6.460;2024-01-06T13:55:42;1.80;99.90
51637;DHT22;37713;53.254;6.460;2024-01-06T13:58:08;1.70;99.90
51637;DHT22;37713;53.254;6.460;2024-01-06T14:00:35;1.60;99.90
51637;DHT22;37713;53.254;6.460;2024-01-06T14:03:02;1.60;99.90
51637;DHT22;37713;53.254;6.460;2024-01-06T14:05:28;1.60;99.90
51637;DHT22;37713;53.254;6.460;2024-01-06T14:07:54;1.60;99.90
51637;DHT22;37713;53.254;6.460;2024-01-06T14:10:21;1.60;99.90
51637;DHT22;37713;53.254;6.460;2024-01-06T14:12:47;1.60;99.90
51637;DHT22;37713;53.254;6.460;2024-01-06T14:15:12;1.50;99.90
51637;DHT22;37713;53.254;6.460;2024-01-06T14:17:38;1.50;99.90
51637;DHT22;37713;53.254;6.460;2024-01-06T14:20:07;1.50;99.90
51637;DHT22;37713;53.254;6.460;2024-01-06T14:22:35;1.50;99.90
51637;DHT22;37713;53.254;6.460;2024-01-06T14:25:01;1.50;99.90
51637;DHT22;37713;53.254;6.460;2024-01-06T14:27:28;1.50;99.90
51637;DHT22;37713;53.254;6.460;2024-01-06T14:29:55;1.50;99.90
51637;DHT22;37713;53.254;6.460;2024-01-06T14:32:21;1.50;99.90
51637;DHT22;37713;53.254;6.460;2024-01-06T14:34:49;1.50;99.90
51637;DHT22;37713;53.254;6.460;2024-01-06T14:37:16;1.50;99.90
51637;DHT22;37713;53.254;6.460;2024-01-06T14:39:42;1.50;99.90
51637;DHT22;37713;53.254;6.460;2024-01-06T14:42:08;1.40;99.90
51637;DHT22;37713;53.254;6.460;2024-01-06T14:44:35;1.80;99.90
51637;DHT22;37713;53.254;6.460;2024-01-06T14:47:01;1.40;99.90
51637;DHT22;37713;53.254;6.460;2024-01-06T14:49:26;1.40;99.90
51637;DHT22;37713;53.254;6.460;2024-01-06T14:51:52;1.40;99.90
51637;DHT22;37713;53.254;6.460;2024-01-06T14:54:18;1.40;99.90
51637;DHT22;37713;53.254;6.460;2024-01-06T14:56:44;1.40;99.90
51637;DHT22;37713;53.254;6.460;2024-01-06T14:59:12;1.40;99.90
51637;DHT22;37713;53.254;6.460;2024-01-06T15:01:41;1.30;99.90
51637;DHT22;37713;53.254;6.460;2024-01-06T15:04:07;1.30;99.90
51637;DHT22;37713;53.254;6.460;2024-01-06T15:06:33;1.30;99.90
51637;DHT22;37713;53.254;6.460;2024-01-06T15:09:00;1.30;99.90
51637;DHT22;37713;53.254;6.460;2024-01-06T15:11:26;1.30;99.90
51637;DHT22;37713;53.254;6.460;2024-01-06T15:13:52;1.20;99.90
51637;DHT22;37713;53.254;6.460;2024-01-06T15:16:18;1.20;99.90
51637;DHT22;37713;53.254;6.460;2024-01-06T15:18:44;1.30;99.90
51637;DHT22;37713;53.254;6.460;2024-01-06T15:21:09;1.20;99.90
51637;DHT22;37713;53.254;6.460;2024-01-06T15:23:35;1.20;99.90
51637;DHT22;37713;53.254;6.460;2024-01-06T15:26:01;1.20;99.90
51637;DHT22;37713;53.254;6.460;2024-01-06T15:28:29;1.20;99.90
51637;DHT22;37713;53.254;6.460;2024-01-06T15:30:55;1.40;99.90
51637;DHT22;37713;53.254;6.460;2024-01-06T15:33:22;1.10;99.90
51637;DHT22;37713;53.254;6.460;2024-01-06T15:35:48;1.00;99.90
51637;DHT22;37713;53.254;6.460;2024-01-06T15:38:14;1.00;99.90
51637;DHT22;37713;53.254;6.460;2024-01-06T15:40:40;0.90;99.90
51637;DHT22;37713;53.254;6.460;2024-01-06T15:43:05;0.90;99.90
51637;DHT22;37713;53.254;6.460;2024-01-06T15:45:31;0.90;99.90
51637;DHT22;37713;53.254;6.460;2024-01-06T15:47:57;0.80;99.90
51637;DHT22;37713;53.254;6.460;2024-01-06T15:50:23;0.80;99.90
51637;DHT22;37713;53.254;6.460;2024-01-06T15:52:48;0.70;99.90